sensor_id;sensor_type;location;lat;lon;timestamp;pressure;altitude;pressure_sealevel;temperature;humidity
68712;BME280;55690;51.566;19.198;2023-09-08T00:03:42;102640.72;;;16.09;100.00
68712;BME280;55690;51.566;19.198;2023-09-08T00:07:48;102634.46;;;16.07;100.00
68712;BME280;55690;51.566;19.198;2023-09-08T00:11:54;102633.58;;;16.07;100.00
68712;BME280;55690;51.566;19.198;2023-09-08T00:16:00;102632.70;;;16.06;100.00
68712;BME280;55690;51.566;19.198;2023-09-08T00:20:07;102625.80;;;16.01;100.00
68712;BME280;55690;51.566;19.198;2023-09-08T00:24:12;102627.87;;;15.97;100.00
68712;BME280;55690;51.566;19.198;2023-09-08T00:28:19;102626.78;;;16.00;100.00
68712;BME280;55690;51.566;19.198;2023-09-08T00:32:25;102623.40;;;15.82;100.00
68712;BME280;55690;51.566;19.198;2023-09-08T00:36:31;102625.16;;;15.83;100.00
68712;BME280;55690;51.566;19.198;2023-09-08T00:40:37;102628.10;;;15.80;100.00
68712;BME280;55690;51.566;19.198;2023-09-08T00:44:43;102618.14;;;15.64;100.00
68712;BME280;55690;51.566;19.198;2023-09-08T00:48:49;102616.09;;;15.68;100.00
68712;BME280;55690;51.566;19.198;2023-09-08T00:52:56;102615.84;;;15.58;100.00
68712;BME280;55690;51.566;19.198;2023-09-08T00:57:02;102608.61;;;15.57;100.00
68712;BME280;55690;51.566;19.198;2023-09-08T01:01:08;102614.83;;;15.45;100.00
68712;BME280;55690;51.566;19.198;2023-09-08T01:05:14;102603.59;;;15.50;100.00
68712;BME280;55690;51.566;19.198;2023-09-08T01:09:21;102598.22;;;15.34;100.00
68712;BME280;55690;51.566;19.198;2023-09-08T01:13:26;102609.16;;;15.34;100.00
68712;BME280;55690;51.566;19.198;2023-09-08T01:17:33;102602.02;;;15.31;100.00
68712;BME280;55690;51.566;19.198;2023-09-08T01:30:09;102601.95;;;15.05;100.00
68712;BME280;55690;51.566;19.198;2023-09-08T01:34:12;102596.88;;;15.13;100.00
68712;BME280;55690;51.566;19.198;2023-09-08T01:38:14;102607.41;;;14.90;100.00
68712;BME280;55690;51.566;19.198;2023-09-08T01:42:16;102604.64;;;14.76;100.00
68712;BME280;55690;51.566;19.198;2023-09-08T01:46:17;102605.04;;;14.70;100.00
68712;BME280;55690;51.566;19.198;2023-09-08T01:50:22;102604.95;;;14.72;100.00
68712;BME280;55690;51.566;19.198;2023-09-08T01:54:28;102600.35;;;14.86;100.00
68712;BME280;55690;51.566;19.198;2023-09-08T01:58:35;102597.91;;;14.82;100.00
68712;BME280;55690;51.566;19.198;2023-09-08T02:02:41;102606.10;;;14.68;100.00
68712;BME280;55690;51.566;19.198;2023-09-08T02:06:47;102593.91;;;14.87;100.00
68712;BME280;55690;51.566;19.198;2023-09-08T02:10:53;102594.01;;;14.86;100.00
68712;BME280;55690;51.566;19.198;2023-09-08T02:14:59;102585.90;;;14.84;100.00
68712;BME280;55690;51.566;19.198;2023-09-08T02:19:05;102578.97;;;14.93;100.00
68712;BME280;55690;51.566;19.198;2023-09-08T02:23:11;102582.30;;;14.98;100.00
68712;BME280;55690;51.566;19.198;2023-09-08T02:27:18;102587.09;;;14.94;100.00
68712;BME280;55690;51.566;19.198;2023-09-08T02:31:24;102574.88;;;15.00;100.00
68712;BME280;55690;51.566;19.198;2023-09-08T02:35:30;102575.66;;;15.02;100.00
68712;BME280;55690;51.566;19.198;2023-09-08T02:39:37;102573.80;;;15.03;100.00
68712;BME280;55690;51.566;19.198;2023-09-08T02:43:42;102577.52;;;15.02;100.00
68712;BME280;55690;51.566;19.198;2023-09-08T02:47:49;102572.05;;;15.02;100.00
68712;BME280;55690;51.566;19.198;2023-09-08T02:51:55;102581.90;;;14.90;100.00
68712;BME280;55690;51.566;19.198;2023-09-08T02:56:01;102579.23;;;14.74;100.00
68712;BME280;55690;51.566;19.198;2023-09-08T03:00:10;102582.48;;;14.67;100.00
68712;BME280;55690;51.566;19.198;2023-09-08T03:04:13;102574.66;;;14.75;100.00
68712;BME280;55690;51.566;19.198;2023-09-08T03:08:19;102575.24;;;14.80;100.00
68712;BME280;55690;51.566;19.198;2023-09-08T03:12:25;102574.87;;;14.72;100.00
68712;BME280;55690;51.566;19.198;2023-09-08T03:16:32;102568.43;;;14.73;100.00
68712;BME280;55690;51.566;19.198;2023-09-08T03:20:38;102568.70;;;14.68;100.00
68712;BME280;55690;51.566;19.198;2023-09-08T03:24:44;102563.63;;;14.62;100.00
68712;BME280;55690;51.566;19.198;2023-09-08T03:28:50;102560.01;;;14.61;100.00
68712;BME280;55690;51.566;19.198;2023-09-08T03:32:56;102556.48;;;14.59;100.00
68712;BME280;55690;51.566;19.198;2023-09-08T03:37:03;102565.56;;;14.60;100.00
68712;BME280;55690;51.566;19.198;2023-09-08T03:41:10;102570.81;;;14.49;100.00
68712;BME280;55690;51.566;19.198;2023-09-08T03:45:15;102563.69;;;14.30;100.00
68712;BME280;55690;51.566;19.198;2023-09-08T03:49:21;102571.52;;;14.37;100.00
68712;BME280;55690;51.566;19.198;2023-09-08T03:53:27;102560.20;;;14.28;100.00
68712;BME280;55690;51.566;19.198;2023-09-08T03:57:33;102560.20;;;14.28;100.00
68712;BME280;55690;51.566;19.198;2023-09-08T04:01:40;102563.11;;;14.25;100.00
68712;BME280;55690;51.566;19.198;2023-09-08T04:05:46;102548.70;;;14.08;100.00
68712;BME280;55690;51.566;19.198;2023-09-08T04:09:52;102556.86;;;14.23;100.00
68712;BME280;55690;51.566;19.198;2023-09-08T04:13:58;102564.28;;;14.21;100.00
68712;BME280;55690;51.566;19.198;2023-09-08T04:18:04;102560.39;;;14.25;100.00
68712;BME280;55690;51.566;19.198;2023-09-08T04:22:10;102554.23;;;14.22;100.00
68712;BME280;55690;51.566;19.198;2023-09-08T04:26:16;102559.16;;;14.15;100.00
68712;BME280;55690;51.566;19.198;2023-09-08T04:30:23;102555.80;;;14.26;100.00
68712;BME280;55690;51.566;19.198;2023-09-08T04:34:29;102552.19;;;14.25;100.00
68712;BME280;55690;51.566;19.198;2023-09-08T04:38:35;102559.28;;;14.44;100.00
68712;BME280;55690;51.566;19.198;2023-09-08T04:42:42;102554.03;;;14.55;100.00
68712;BME280;55690;51.566;19.198;2023-09-08T04:46:48;102556.02;;;14.67;100.00
68712;BME280;55690;51.566;19.198;2023-09-08T04:50:53;102558.66;;;14.69;100.00
68712;BME280;55690;51.566;19.198;2023-09-08T04:55:00;102561.57;;;14.80;100.00
68712;BME280;55690;51.566;19.198;2023-09-08T04:59:06;102553.09;;;14.98;100.00
68712;BME280;55690;51.566;19.198;2023-09-08T05:03:12;102548.76;;;15.23;100.00
68712;BME280;55690;51.566;19.198;2023-09-08T05:07:18;102545.80;;;15.40;100.00
68712;BME280;55690;51.566;19.198;2023-09-08T05:11:24;102550.41;;;15.40;100.00
68712;BME280;55690;51.566;19.198;2023-09-08T05:15:31;102555.58;;;15.58;100.00
68712;BME280;55690;51.566;19.198;2023-09-08T05:19:37;102550.82;;;15.75;100.00
68712;BME280;55690;51.566;19.198;2023-09-08T05:23:43;102552.19;;;15.82;100.00
68712;BME280;55690;51.566;19.198;2023-09-08T05:27:49;102550.59;;;15.92;100.00
68712;BME280;55690;51.566;19.198;2023-09-08T05:31:55;102547.36;;;16.25;100.00
68712;BME280;55690;51.566;19.198;2023-09-08T05:36:01;102541.70;;;16.53;100.00
68712;BME280;55690;51.566;19.198;2023-09-08T05:40:08;102541.16;;;16.61;100.00
68712;BME280;55690;51.566;19.198;2023-09-08T05:44:14;102544.29;;;16.69;100.00
68712;BME280;55690;51.566;19.198;2023-09-08T05:48:20;102545.73;;;16.87;100.00
68712;BME280;55690;51.566;19.198;2023-09-08T05:52:26;102540.53;;;16.95;100.00
68712;BME280;55690;51.566;19.198;2023-09-08T05:56:33;102550.84;;;17.17;100.00
68712;BME280;55690;51.566;19.198;2023-09-08T06:00:39;102544.57;;;17.28;100.00
68712;BME280;55690;51.566;19.198;2023-09-08T06:04:45;102542.16;;;17.60;100.00
68712;BME280;55690;51.566;19.198;2023-09-08T06:08:51;102547.41;;;17.76;100.00
68712;BME280;55690;51.566;19.198;2023-09-08T06:12:57;102537.80;;;18.05;100.00
68712;BME280;55690;51.566;19.198;2023-09-08T06:17:03;102536.24;;;18.25;100.00
68712;BME280;55690;51.566;19.198;2023-09-08T06:21:09;102529.95;;;18.47;100.00
68712;BME280;55690;51.566;19.198;2023-09-08T06:25:15;102532.27;;;18.75;100.00
68712;BME280;55690;51.566;19.198;2023-09-08T06:29:22;102532.05;;;19.01;100.00
68712;BME280;55690;51.566;19.198;2023-09-08T06:33:28;102525.13;;;19.06;100.00
68712;BME280;55690;51.566;19.198;2023-09-08T06:37:40;102525.15;;;19.28;100.00
68712;BME280;55690;51.566;19.198;2023-09-08T06:41:42;102527.26;;;19.47;100.00
68712;BME280;55690;51.566;19.198;2023-09-08T06:45:50;102528.13;;;19.59;100.00
68712;BME280;55690;51.566;19.198;2023-09-08T06:49:52;102531.07;;;19.89;100.00
68712;BME280;55690;51.566;19.198;2023-09-08T06:53:59;102534.07;;;20.18;100.00
68712;BME280;55690;51.566;19.198;2023-09-08T06:58:05;102531.88;;;20.54;100.00
68712;BME280;55690;51.566;19.198;2023-09-08T07:02:11;102535.14;;;20.89;100.00
68712;BME280;55690;51.566;19.198;2023-09-08T07:06:17;102533.92;;;21.34;100.00
68712;BME280;55690;51.566;19.198;2023-09-08T07:10:23;102529.97;;;21.86;98.85
68712;BME280;55690;51.566;19.198;2023-09-08T07:14:30;102529.87;;;22.36;96.74
68712;BME280;55690;51.566;19.198;2023-09-08T07:18:36;102538.32;;;22.44;96.91
68712;BME280;55690;51.566;19.198;2023-09-08T07:22:42;102525.43;;;22.72;94.91
68712;BME280;55690;51.566;19.198;2023-09-08T07:26:48;102530.38;;;22.87;93.38
68712;BME280;55690;51.566;19.198;2023-09-08T07:31:02;102529.87;;;23.02;91.66
68712;BME280;55690;51.566;19.198;2023-09-08T07:35:04;102522.81;;;23.17;93.01
68712;BME280;55690;51.566;19.198;2023-09-08T07:39:06;102517.27;;;23.17;92.59
68712;BME280;55690;51.566;19.198;2023-09-08T07:43:13;102523.90;;;22.97;92.54
68712;BME280;55690;51.566;19.198;2023-09-08T07:47:19;102516.67;;;23.23;92.00
68712;BME280;55690;51.566;19.198;2023-09-08T07:51:26;102516.47;;;23.34;89.13
68712;BME280;55690;51.566;19.198;2023-09-08T07:55:31;102516.65;;;23.50;88.51
68712;BME280;55690;51.566;19.198;2023-09-08T07:59:37;102511.03;;;23.70;88.74
68712;BME280;55690;51.566;19.198;2023-09-08T08:03:44;102511.42;;;23.93;87.08
68712;BME280;55690;51.566;19.198;2023-09-08T08:07:50;102510.16;;;23.87;86.52
68712;BME280;55690;51.566;19.198;2023-09-08T08:11:56;102511.59;;;24.09;85.26
68712;BME280;55690;51.566;19.198;2023-09-08T08:16:02;102514.22;;;24.10;86.47
68712;BME280;55690;51.566;19.198;2023-09-08T08:20:10;102517.86;;;24.29;87.12
68712;BME280;55690;51.566;19.198;2023-09-08T08:24:20;102511.68;;;24.35;83.64
68712;BME280;55690;51.566;19.198;2023-09-08T08:28:21;102520.47;;;24.48;84.45
68712;BME280;55690;51.566;19.198;2023-09-08T08:32:27;102505.93;;;24.54;84.00
68712;BME280;55690;51.566;19.198;2023-09-08T08:36:33;102511.72;;;24.61;83.08
68712;BME280;55690;51.566;19.198;2023-09-08T08:40:39;102499.27;;;24.73;82.58
68712;BME280;55690;51.566;19.198;2023-09-08T08:44:45;102500.84;;;24.67;81.04
68712;BME280;55690;51.566;19.198;2023-09-08T08:48:51;102500.78;;;24.59;80.69
68712;BME280;55690;51.566;19.198;2023-09-08T08:52:58;102503.55;;;24.59;80.72
68712;BME280;55690;51.566;19.198;2023-09-08T08:57:04;102493.88;;;24.71;80.40
68712;BME280;55690;51.566;19.198;2023-09-08T09:01:11;102486.65;;;24.78;81.61
68712;BME280;55690;51.566;19.198;2023-09-08T09:05:16;102485.34;;;24.91;78.92
68712;BME280;55690;51.566;19.198;2023-09-08T09:09:23;102490.56;;;24.94;79.22
68712;BME280;55690;51.566;19.198;2023-09-08T09:13:28;102486.54;;;24.88;77.34
68712;BME280;55690;51.566;19.198;2023-09-08T09:17:35;102483.25;;;24.93;78.42
68712;BME280;55690;51.566;19.198;2023-09-08T09:21:45;102479.36;;;25.03;78.23
68712;BME280;55690;51.566;19.198;2023-09-08T09:25:52;102474.46;;;24.97;78.19
68712;BME280;55690;51.566;19.198;2023-09-08T09:29:53;102476.80;;;25.10;78.74
68712;BME280;55690;51.566;19.198;2023-09-08T09:34:04;102472.45;;;25.15;79.45
68712;BME280;55690;51.566;19.198;2023-09-08T09:38:06;102471.74;;;25.13;76.35
68712;BME280;55690;51.566;19.198;2023-09-08T09:42:11;102455.59;;;25.17;73.84
68712;BME280;55690;51.566;19.198;2023-09-08T09:46:18;102458.64;;;25.40;76.71
68712;BME280;55690;51.566;19.198;2023-09-08T09:50:31;102457.97;;;25.46;76.20
68712;BME280;55690;51.566;19.198;2023-09-08T09:54:34;102452.08;;;25.57;72.67
68712;BME280;55690;51.566;19.198;2023-09-08T09:58:37;102452.30;;;25.72;75.10
68712;BME280;55690;51.566;19.198;2023-09-08T10:02:42;102446.59;;;25.81;73.17
68712;BME280;55690;51.566;19.198;2023-09-08T10:06:49;102442.79;;;25.99;73.90
68712;BME280;55690;51.566;19.198;2023-09-08T10:10:55;102445.55;;;26.23;73.74
68712;BME280;55690;51.566;19.198;2023-09-08T10:15:02;102434.57;;;26.46;73.62
68712;BME280;55690;51.566;19.198;2023-09-08T10:19:10;102442.73;;;26.64;73.39
68712;BME280;55690;51.566;19.198;2023-09-08T10:23:22;102435.23;;;26.72;72.14
68712;BME280;55690;51.566;19.198;2023-09-08T10:27:25;102429.16;;;26.53;70.57
68712;BME280;55690;51.566;19.198;2023-09-08T10:31:28;102418.75;;;26.30;69.93
68712;BME280;55690;51.566;19.198;2023-09-08T10:35:32;102427.66;;;26.34;71.26
68712;BME280;55690;51.566;19.198;2023-09-08T10:39:37;102427.66;;;26.34;70.54
68712;BME280;55690;51.566;19.198;2023-09-08T10:43:45;102424.15;;;26.15;72.25
68712;BME280;55690;51.566;19.198;2023-09-08T10:47:55;102413.52;;;26.27;70.59
68712;BME280;55690;51.566;19.198;2023-09-08T10:56:11;102404.49;;;26.41;67.38
68712;BME280;55690;51.566;19.198;2023-09-08T11:00:18;102406.16;;;26.67;69.75
68712;BME280;55690;51.566;19.198;2023-09-08T11:04:21;102410.70;;;26.60;67.73
68712;BME280;55690;51.566;19.198;2023-09-08T11:08:25;102405.49;;;26.48;67.16
68712;BME280;55690;51.566;19.198;2023-09-08T11:12:27;102402.45;;;26.82;68.96
68712;BME280;55690;51.566;19.198;2023-09-08T11:16:33;102394.04;;;26.99;67.63
68712;BME280;55690;51.566;19.198;2023-09-08T11:20:39;102388.66;;;27.28;65.44
68712;BME280;55690;51.566;19.198;2023-09-08T11:24:45;102389.83;;;27.03;64.51
68712;BME280;55690;51.566;19.198;2023-09-08T11:28:51;102393.52;;;27.57;66.27
68712;BME280;55690;51.566;19.198;2023-09-08T11:32:57;102384.14;;;27.27;66.23
68712;BME280;55690;51.566;19.198;2023-09-08T11:37:10;102381.09;;;27.68;64.79
68712;BME280;55690;51.566;19.198;2023-09-08T11:41:13;102379.95;;;27.77;63.36
68712;BME280;55690;51.566;19.198;2023-09-08T11:45:16;102389.00;;;27.79;64.82
68712;BME280;55690;51.566;19.198;2023-09-08T11:49:24;102381.38;;;27.73;61.75
68712;BME280;55690;51.566;19.198;2023-09-08T11:53:29;102380.00;;;27.92;65.88
68712;BME280;55690;51.566;19.198;2023-09-08T11:57:35;102374.84;;;28.03;64.97
68712;BME280;55690;51.566;19.198;2023-09-08T12:01:41;102383.23;;;27.80;63.33
68712;BME280;55690;51.566;19.198;2023-09-08T12:05:51;102367.75;;;28.15;63.98
68712;BME280;55690;51.566;19.198;2023-09-08T12:09:53;102365.86;;;28.31;64.61
68712;BME280;55690;51.566;19.198;2023-09-08T12:14:07;102363.29;;;28.59;62.61
68712;BME280;55690;51.566;19.198;2023-09-08T12:18:13;102359.34;;;28.53;62.96
68712;BME280;55690;51.566;19.198;2023-09-08T12:22:16;102355.55;;;28.61;61.98
68712;BME280;55690;51.566;19.198;2023-09-08T12:26:25;102351.63;;;28.55;62.04
68712;BME280;55690;51.566;19.198;2023-09-08T12:30:28;102343.34;;;28.47;63.74
68712;BME280;55690;51.566;19.198;2023-09-08T12:34:34;102350.16;;;28.30;64.65
68712;BME280;55690;51.566;19.198;2023-09-08T12:38:36;102338.38;;;28.64;65.45
68712;BME280;55690;51.566;19.198;2023-09-08T12:42:42;102347.55;;;28.72;65.13
68712;BME280;55690;51.566;19.198;2023-09-08T12:46:48;102331.20;;;28.55;62.90
68712;BME280;55690;51.566;19.198;2023-09-08T12:50:54;102329.46;;;28.54;62.93
68712;BME280;55690;51.566;19.198;2023-09-08T12:55:00;102331.94;;;28.63;63.69
68712;BME280;55690;51.566;19.198;2023-09-08T12:59:07;102338.27;;;28.13;62.62
68712;BME280;55690;51.566;19.198;2023-09-08T13:03:13;102326.16;;;28.35;65.12
68712;BME280;55690;51.566;19.198;2023-09-08T13:07:19;102329.73;;;28.29;63.40
68712;BME280;55690;51.566;19.198;2023-09-08T13:11:25;102324.20;;;28.06;63.51
68712;BME280;55690;51.566;19.198;2023-09-08T13:15:31;102317.66;;;28.14;63.95
68712;BME280;55690;51.566;19.198;2023-09-08T13:19:37;102323.17;;;27.85;64.04
68712;BME280;55690;51.566;19.198;2023-09-08T13:23:43;102320.95;;;27.80;65.33
68712;BME280;55690;51.566;19.198;2023-09-08T13:27:50;102321.12;;;27.64;64.01
68712;BME280;55690;51.566;19.198;2023-09-08T13:31:56;102314.52;;;27.57;64.11
68712;BME280;55690;51.566;19.198;2023-09-08T13:36:02;102315.47;;;27.72;66.58
68712;BME280;55690;51.566;19.198;2023-09-08T13:40:11;102318.41;;;27.47;65.80
68712;BME280;55690;51.566;19.198;2023-09-08T13:44:22;102312.77;;;27.33;66.86
68712;BME280;55690;51.566;19.198;2023-09-08T13:48:23;102311.03;;;27.09;66.91
68712;BME280;55690;51.566;19.198;2023-09-08T13:52:29;102302.92;;;27.22;66.23
68712;BME280;55690;51.566;19.198;2023-09-08T13:56:38;102300.43;;;27.04;66.68
68712;BME280;55690;51.566;19.198;2023-09-08T14:00:42;102293.93;;;27.12;65.65
68712;BME280;55690;51.566;19.198;2023-09-08T14:04:48;102289.36;;;27.19;65.97
68712;BME280;55690;51.566;19.198;2023-09-08T14:08:54;102287.04;;;27.00;66.64
68712;BME280;55690;51.566;19.198;2023-09-08T14:13:01;102294.18;;;26.94;67.84
68712;BME280;55690;51.566;19.198;2023-09-08T14:17:06;102274.31;;;26.66;66.90
68712;BME280;55690;51.566;19.198;2023-09-08T14:21:12;102281.63;;;26.67;68.70
68712;BME280;55690;51.566;19.198;2023-09-08T14:25:19;102280.42;;;26.62;68.85
68712;BME280;55690;51.566;19.198;2023-09-08T14:29:25;102275.43;;;26.49;68.26
68712;BME280;55690;51.566;19.198;2023-09-08T14:33:31;102275.24;;;26.50;67.25
68712;BME280;55690;51.566;19.198;2023-09-08T14:37:37;102270.13;;;26.31;68.14
68712;BME280;55690;51.566;19.198;2023-09-08T14:41:45;102266.99;;;26.18;68.62
68712;BME280;55690;51.566;19.198;2023-09-08T14:45:50;102272.05;;;26.31;68.84
68712;BME280;55690;51.566;19.198;2023-09-08T14:49:55;102265.44;;;26.15;69.34
68712;BME280;55690;51.566;19.198;2023-09-08T14:54:02;102266.47;;;26.31;68.28
68712;BME280;55690;51.566;19.198;2023-09-08T14:58:08;102254.99;;;26.17;68.56
68712;BME280;55690;51.566;19.198;2023-09-08T15:02:14;102249.34;;;25.87;69.92
68712;BME280;55690;51.566;19.198;2023-09-08T15:06:20;102248.15;;;25.65;74.29
68712;BME280;55690;51.566;19.198;2023-09-08T15:10:26;102243.46;;;25.41;77.29
68712;BME280;55690;51.566;19.198;2023-09-08T15:14:33;102258.41;;;25.32;78.78
68712;BME280;55690;51.566;19.198;2023-09-08T15:18:39;102245.88;;;25.19;75.79
68712;BME280;55690;51.566;19.198;2023-09-08T15:22:48;102237.54;;;25.28;74.32
68712;BME280;55690;51.566;19.198;2023-09-08T15:26:51;102243.63;;;25.31;73.45
68712;BME280;55690;51.566;19.198;2023-09-08T15:30:57;102239.45;;;25.27;76.71
68712;BME280;55690;51.566;19.198;2023-09-08T15:35:04;102238.76;;;25.25;73.63
68712;BME280;55690;51.566;19.198;2023-09-08T15:39:09;102239.45;;;25.19;76.91
68712;BME280;55690;51.566;19.198;2023-09-08T15:43:16;102238.54;;;24.94;75.55
68712;BME280;55690;51.566;19.198;2023-09-08T15:47:22;102243.38;;;24.84;77.88
68712;BME280;55690;51.566;19.198;2023-09-08T15:51:28;102238.84;;;24.67;78.13
68712;BME280;55690;51.566;19.198;2023-09-08T15:55:34;102234.82;;;24.61;77.16
68712;BME280;55690;51.566;19.198;2023-09-08T15:59:40;102237.41;;;24.54;79.35
68712;BME280;55690;51.566;19.198;2023-09-08T16:03:46;102228.88;;;24.48;78.23
68712;BME280;55690;51.566;19.198;2023-09-08T16:07:53;102227.44;;;24.36;79.85
68712;BME280;55690;51.566;19.198;2023-09-08T16:11:59;102227.70;;;24.16;78.93
68712;BME280;55690;51.566;19.198;2023-09-08T16:16:05;102223.12;;;24.07;80.03
68712;BME280;55690;51.566;19.198;2023-09-08T16:20:11;102227.59;;;24.00;82.00
68712;BME280;55690;51.566;19.198;2023-09-08T16:24:17;102215.58;;;23.92;81.98
68712;BME280;55690;51.566;19.198;2023-09-08T16:28:23;102219.17;;;23.84;81.52
68712;BME280;55690;51.566;19.198;2023-09-08T16:32:29;102218.82;;;23.79;81.50
68712;BME280;55690;51.566;19.198;2023-09-08T16:36:36;102223.05;;;23.65;82.72
68712;BME280;55690;51.566;19.198;2023-09-08T16:40:43;102228.98;;;23.52;84.81
68712;BME280;55690;51.566;19.198;2023-09-08T16:44:48;102233.55;;;23.36;86.21
68712;BME280;55690;51.566;19.198;2023-09-08T16:48:54;102228.11;;;23.26;84.29
68712;BME280;55690;51.566;19.198;2023-09-08T16:53:00;102236.66;;;23.15;86.83
68712;BME280;55690;51.566;19.198;2023-09-08T16:57:06;102238.79;;;23.03;87.44
68712;BME280;55690;51.566;19.198;2023-09-08T17:01:13;102235.25;;;22.93;86.66
68712;BME280;55690;51.566;19.198;2023-09-08T17:05:19;102244.23;;;22.77;89.23
68712;BME280;55690;51.566;19.198;2023-09-08T17:09:25;102244.69;;;22.73;88.19
68712;BME280;55690;51.566;19.198;2023-09-08T17:13:32;102240.14;;;22.54;89.53
68712;BME280;55690;51.566;19.198;2023-09-08T17:17:38;102242.84;;;22.46;88.29
68712;BME280;55690;51.566;19.198;2023-09-08T17:21:43;102235.04;;;22.32;88.77
68712;BME280;55690;51.566;19.198;2023-09-08T17:25:50;102243.34;;;22.32;91.42
68712;BME280;55690;51.566;19.198;2023-09-08T17:29:56;102238.91;;;22.11;89.82
68712;BME280;55690;51.566;19.198;2023-09-08T17:34:02;102244.21;;;21.95;91.15
68712;BME280;55690;51.566;19.198;2023-09-08T17:38:08;102249.49;;;21.79;90.78
68712;BME280;55690;51.566;19.198;2023-09-08T17:42:14;102255.34;;;21.66;91.77
68712;BME280;55690;51.566;19.198;2023-09-08T17:46:20;102245.35;;;21.55;91.68
68712;BME280;55690;51.566;19.198;2023-09-08T17:50:26;102258.89;;;21.39;92.30
68712;BME280;55690;51.566;19.198;2023-09-08T17:54:33;102258.46;;;21.24;92.02
68712;BME280;55690;51.566;19.198;2023-09-08T17:58:39;102261.95;;;21.17;93.02
68712;BME280;55690;51.566;19.198;2023-09-08T18:02:45;102265.14;;;21.12;93.96
68712;BME280;55690;51.566;19.198;2023-09-08T18:06:51;102259.32;;;21.06;92.84
68712;BME280;55690;51.566;19.198;2023-09-08T18:11:02;102261.49;;;21.02;92.91
68712;BME280;55690;51.566;19.198;2023-09-08T18:15:05;102250.72;;;20.89;92.06
68712;BME280;55690;51.566;19.198;2023-09-08T18:19:10;102253.34;;;20.91;92.23
68712;BME280;55690;51.566;19.198;2023-09-08T18:23:17;102251.02;;;20.77;94.21
68712;BME280;55690;51.566;19.198;2023-09-08T18:27:22;102252.47;;;20.71;94.32
68712;BME280;55690;51.566;19.198;2023-09-08T18:31:28;102255.93;;;20.64;94.30
68712;BME280;55690;51.566;19.198;2023-09-08T18:35:34;102245.14;;;20.51;94.02
68712;BME280;55690;51.566;19.198;2023-09-08T18:39:41;102243.61;;;20.37;95.35
68712;BME280;55690;51.566;19.198;2023-09-08T18:43:47;102245.35;;;20.29;96.24
68712;BME280;55690;51.566;19.198;2023-09-08T18:47:53;102244.02;;;20.23;95.36
68712;BME280;55690;51.566;19.198;2023-09-08T18:51:59;102245.64;;;20.25;94.78
68712;BME280;55690;51.566;19.198;2023-09-08T18:56:05;102244.30;;;20.20;95.64
68712;BME280;55690;51.566;19.198;2023-09-08T19:00:12;102248.48;;;20.14;96.36
68712;BME280;55690;51.566;19.198;2023-09-08T19:04:17;102243.24;;;20.11;95.98
68712;BME280;55690;51.566;19.198;2023-09-08T19:08:24;102242.92;;;20.05;95.88
68712;BME280;55690;51.566;19.198;2023-09-08T19:12:30;102249.27;;;19.96;97.01
68712;BME280;55690;51.566;19.198;2023-09-08T19:16:36;102245.20;;;19.90;96.54
68712;BME280;55690;51.566;19.198;2023-09-08T19:20:43;102250.06;;;19.77;97.30
68712;BME280;55690;51.566;19.198;2023-09-08T19:24:48;102241.05;;;19.75;97.13
68712;BME280;55690;51.566;19.198;2023-09-08T19:28:54;102249.59;;;19.72;97.63
68712;BME280;55690;51.566;19.198;2023-09-08T19:33:01;102247.58;;;19.53;99.45
68712;BME280;55690;51.566;19.198;2023-09-08T19:37:07;102246.23;;;19.47;98.77
68712;BME280;55690;51.566;19.198;2023-09-08T19:41:13;102252.94;;;19.34;99.49
68712;BME280;55690;51.566;19.198;2023-09-08T19:45:19;102253.41;;;19.39;98.56
68712;BME280;55690;51.566;19.198;2023-09-08T19:49:25;102244.41;;;19.37;98.10
68712;BME280;55690;51.566;19.198;2023-09-08T19:53:31;102245.08;;;19.29;98.38
68712;BME280;55690;51.566;19.198;2023-09-08T19:57:38;102248.09;;;19.26;98.46
68712;BME280;55690;51.566;19.198;2023-09-08T20:01:45;102252.38;;;19.19;99.58
68712;BME280;55690;51.566;19.198;2023-09-08T20:05:50;102244.52;;;19.14;99.53
68712;BME280;55690;51.566;19.198;2023-09-08T20:09:56;102239.40;;;19.10;99.73
68712;BME280;55690;51.566;19.198;2023-09-08T20:14:02;102243.16;;;19.09;99.52
68712;BME280;55690;51.566;19.198;2023-09-08T20:18:08;102243.72;;;19.03;99.64
68712;BME280;55690;51.566;19.198;2023-09-08T20:22:15;102242.97;;;19.01;99.27
68712;BME280;55690;51.566;19.198;2023-09-08T20:26:21;102242.49;;;18.96;100.00
68712;BME280;55690;51.566;19.198;2023-09-08T20:30:27;102244.15;;;18.87;100.00
68712;BME280;55690;51.566;19.198;2023-09-08T20:34:33;102242.30;;;18.76;100.00
68712;BME280;55690;51.566;19.198;2023-09-08T20:38:40;102245.30;;;18.73;100.00
68712;BME280;55690;51.566;19.198;2023-09-08T20:42:45;102246.57;;;18.69;100.00
68712;BME280;55690;51.566;19.198;2023-09-08T20:46:51;102249.99;;;18.62;100.00
68712;BME280;55690;51.566;19.198;2023-09-08T20:51:02;102248.98;;;18.51;100.00
68712;BME280;55690;51.566;19.198;2023-09-08T20:55:09;102252.61;;;18.52;100.00
68712;BME280;55690;51.566;19.198;2023-09-08T20:59:11;102246.86;;;18.44;99.58
68712;BME280;55690;51.566;19.198;2023-09-08T21:03:16;102254.62;;;18.39;100.00
68712;BME280;55690;51.566;19.198;2023-09-08T21:07:22;102251.38;;;18.34;100.00
68712;BME280;55690;51.566;19.198;2023-09-08T21:11:29;102251.38;;;18.34;99.06
68712;BME280;55690;51.566;19.198;2023-09-08T21:15:35;102246.53;;;18.15;100.00